createdAt,value
2023-02-27T00:00:44.013Z,67.20
2023-02-27T00:03:11.927Z,67.40
2023-02-27T00:05:41.672Z,66.90
2023-02-27T00:08:09.687Z,66.60
2023-02-27T00:10:37.720Z,66.10
2023-02-27T00:13:07.158Z,65.70
2023-02-27T00:15:35.208Z,65.40
2023-02-27T00:18:03.194Z,65.30
2023-02-27T00:20:32.248Z,65.20
2023-02-27T00:23:00.185Z,65.40
2023-02-27T00:25:28.177Z,65.40
2023-02-27T00:27:56.912Z,65.30
2023-02-27T00:30:26.695Z,65.60
2023-02-27T00:32:54.846Z,65.90
2023-02-27T00:35:23.032Z,65.70
2023-02-27T00:37:51.080Z,66.30
2023-02-27T00:40:19.252Z,66.30
2023-02-27T00:42:48.771Z,66.40
2023-02-27T00:45:16.741Z,66.50
2023-02-27T00:47:46.090Z,66.80
2023-02-27T00:50:14.750Z,66.70
2023-02-27T00:52:43.114Z,66.80
2023-02-27T00:55:11.924Z,66.60
2023-02-27T00:57:40.568Z,66.70
2023-02-27T01:00:11.015Z,66.80
2023-02-27T01:02:39.417Z,66.90
2023-02-27T01:05:10.150Z,66.80
2023-02-27T01:07:38.282Z,66.80
2023-02-27T01:10:07.220Z,67.10
2023-02-27T01:12:35.284Z,67.20
2023-02-27T01:15:03.334Z,68.00
2023-02-27T01:17:31.273Z,67.60
2023-02-27T01:19:59.357Z,67.80
2023-02-27T01:22:28.763Z,67.70
2023-02-27T01:24:56.748Z,67.80
2023-02-27T01:27:24.723Z,68.00
2023-02-27T01:29:52.645Z,68.10
2023-02-27T01:32:20.844Z,68.00
2023-02-27T01:34:48.881Z,68.10
2023-02-27T01:37:16.852Z,68.20
2023-02-27T01:39:46.302Z,69.00
2023-02-27T01:42:22.695Z,69.20
2023-02-27T01:45:19.905Z,69.50
2023-02-27T01:47:52.900Z,69.40
2023-02-27T01:50:21.299Z,69.50
2023-02-27T01:52:53.990Z,69.40
2023-02-27T01:55:25.750Z,70.30
2023-02-27T01:57:54.853Z,69.40
2023-02-27T02:00:23.715Z,69.20
2023-02-27T02:03:00.569Z,69.20
2023-02-27T02:05:30.410Z,69.00
2023-02-27T02:07:59.451Z,68.90
2023-02-27T02:10:29.340Z,69.30
2023-02-27T02:12:57.856Z,69.30
2023-02-27T02:15:32.167Z,69.40
2023-02-27T02:18:11.362Z,69.20
2023-02-27T02:21:10.437Z,69.00
2023-02-27T02:24:02.710Z,68.90
2023-02-27T02:27:04.094Z,69.00
2023-02-27T02:30:18.512Z,68.80
2023-02-27T02:33:23.237Z,68.90
2023-02-27T02:36:30.736Z,68.80
2023-02-27T02:39:23.301Z,69.00
2023-02-27T02:42:02.935Z,68.80
2023-02-27T02:44:38.479Z,68.80
2023-02-27T02:47:11.946Z,69.40
2023-02-27T02:49:50.914Z,68.60
2023-02-27T02:52:27.504Z,68.50
2023-02-27T02:55:03.015Z,68.30
2023-02-27T02:57:38.467Z,69.30
2023-02-27T03:00:11.226Z,69.00
2023-02-27T03:02:45.790Z,68.70
2023-02-27T03:05:19.359Z,68.70
2023-02-27T03:07:53.111Z,68.90
2023-02-27T03:10:27.305Z,68.90
2023-02-27T03:13:01.244Z,69.00
2023-02-27T03:15:34.313Z,68.90
2023-02-27T03:18:07.650Z,68.90
2023-02-27T03:20:40.470Z,68.40
2023-02-27T03:23:12.409Z,68.00
2023-02-27T03:25:46.320Z,68.30
2023-02-27T03:28:18.627Z,68.40
2023-02-27T03:30:51.940Z,68.30
2023-02-27T03:33:25.679Z,68.00
2023-02-27T03:36:05.676Z,67.40
2023-02-27T03:38:38.847Z,67.10
2023-02-27T03:41:15.430Z,66.70
2023-02-27T03:43:52.402Z,66.70
2023-02-27T03:46:23.595Z,66.70
2023-02-27T03:48:51.835Z,66.20
2023-02-27T03:51:22.033Z,66.10
2023-02-27T03:53:55.941Z,66.00
2023-02-27T03:56:29.324Z,66.10
2023-02-27T03:58:57.556Z,66.10
2023-02-27T04:01:26.138Z,66.00
2023-02-27T04:03:59.185Z,66.00
2023-02-27T04:06:45.144Z,66.20
2023-02-27T04:09:21.748Z,66.10
2023-02-27T04:12:07.946Z,66.20
2023-02-27T04:14:48.043Z,66.30
2023-02-27T04:17:27.194Z,66.20
2023-02-27T04:20:31.508Z,65.80
2023-02-27T04:23:04.287Z,66.00
2023-02-27T04:25:44.631Z,65.80
2023-02-27T04:28:18.353Z,65.70
2023-02-27T04:30:54.355Z,65.70
2023-02-27T04:33:30.840Z,65.80
2023-02-27T04:36:05.865Z,65.50
2023-02-27T04:38:40.215Z,65.40
2023-02-27T04:41:13.079Z,65.60
2023-02-27T04:43:43.908Z,65.30
2023-02-27T04:46:15.390Z,65.20
2023-02-27T04:48:53.289Z,65.10
2023-02-27T04:51:26.170Z,65.30
2023-02-27T04:53:59.412Z,64.90
2023-02-27T04:56:32.236Z,64.90
2023-02-27T04:59:06.352Z,65.00
2023-02-27T05:01:39.164Z,65.10
2023-02-27T05:04:09.925Z,65.10
2023-02-27T05:06:40.894Z,65.10
2023-02-27T05:09:15.488Z,65.00
2023-02-27T05:11:49.202Z,65.10
2023-02-27T05:14:23.523Z,65.00
2023-02-27T05:16:55.813Z,65.10
2023-02-27T05:19:24.287Z,64.90
2023-02-27T05:21:57.851Z,65.40
2023-02-27T05:24:34.083Z,65.50
2023-02-27T05:27:17.700Z,66.00
2023-02-27T05:29:50.594Z,65.90
2023-02-27T05:32:30.811Z,64.90
2023-02-27T05:35:03.508Z,64.90
2023-02-27T05:37:35.933Z,65.40
2023-02-27T05:40:08.553Z,65.40
2023-02-27T05:42:41.799Z,65.50
2023-02-27T05:45:14.331Z,65.60
2023-02-27T05:47:46.901Z,65.50
2023-02-27T05:50:18.723Z,65.30
2023-02-27T05:52:48.432Z,65.40
2023-02-27T05:55:22.153Z,65.50
2023-02-27T05:57:54.534Z,65.60
2023-02-27T06:00:28.914Z,65.50
2023-02-27T06:02:57.122Z,65.60
2023-02-27T06:05:26.598Z,65.70
2023-02-27T06:07:54.604Z,66.10
2023-02-27T06:10:23.057Z,66.00
2023-02-27T06:12:51.131Z,67.00
2023-02-27T06:15:19.750Z,66.20
2023-02-27T06:17:49.050Z,66.60
2023-02-27T06:20:17.178Z,66.70
2023-02-27T06:22:45.566Z,66.80
2023-02-27T06:25:13.569Z,67.10
2023-02-27T06:27:41.551Z,67.10
2023-02-27T06:30:10.733Z,67.40
2023-02-27T06:32:38.685Z,68.20
2023-02-27T06:35:09.394Z,68.30
2023-02-27T06:37:37.391Z,68.40
2023-02-27T06:40:08.824Z,68.80
2023-02-27T06:42:36.783Z,69.30
2023-02-27T06:45:05.263Z,69.40
2023-02-27T06:47:33.943Z,69.40
2023-02-27T06:50:02.794Z,69.60
2023-02-27T06:52:32.158Z,69.60
2023-02-27T06:55:00.319Z,69.50
2023-02-27T06:57:28.302Z,69.40
2023-02-27T06:59:56.259Z,69.40
2023-02-27T07:02:25.668Z,69.50
2023-02-27T07:04:53.931Z,69.80
2023-02-27T07:07:34.860Z,69.90
2023-02-27T07:10:08.123Z,70.00
2023-02-27T07:12:36.090Z,70.00
2023-02-27T07:15:04.320Z,70.20
2023-02-27T07:17:32.756Z,70.10
2023-02-27T07:20:00.735Z,70.20
2023-02-27T07:22:28.742Z,70.20
2023-02-27T07:24:56.801Z,70.50
2023-02-27T07:27:26.206Z,70.80
2023-02-27T07:29:54.186Z,71.40
2023-02-27T07:32:22.398Z,71.60
2023-02-27T07:34:50.447Z,71.40
2023-02-27T07:37:18.407Z,71.50
2023-02-27T07:39:46.502Z,71.70
2023-02-27T07:42:14.464Z,71.20
2023-02-27T07:44:43.828Z,71.40
2023-02-27T07:47:12.675Z,71.20
2023-02-27T07:49:40.668Z,71.10
2023-02-27T07:52:08.765Z,70.80
2023-02-27T07:54:37.613Z,70.50
2023-02-27T07:57:05.925Z,70.60
2023-02-27T07:59:34.182Z,70.90
2023-02-27T08:02:03.736Z,70.50
2023-02-27T08:04:31.761Z,71.10
2023-02-27T08:07:00.766Z,71.20
2023-02-27T08:09:28.814Z,70.80
2023-02-27T08:11:56.782Z,70.80
2023-02-27T08:14:24.780Z,70.50
2023-02-27T08:16:52.775Z,70.60
2023-02-27T08:19:22.095Z,70.70
2023-02-27T08:21:50.148Z,70.90
2023-02-27T08:24:18.131Z,70.90
2023-02-27T08:26:46.129Z,71.00
2023-02-27T08:29:15.569Z,70.90
2023-02-27T08:31:45.099Z,71.00
2023-02-27T08:34:13.339Z,71.40
2023-02-27T08:36:42.683Z,70.60
2023-02-27T08:39:10.996Z,71.00
2023-02-27T08:41:39.317Z,70.60
2023-02-27T08:44:07.357Z,70.80
2023-02-27T08:46:35.365Z,71.20
2023-02-27T08:49:03.300Z,71.30
2023-02-27T08:51:31.407Z,71.00
2023-02-27T08:54:00.758Z,70.60
2023-02-27T08:56:29.464Z,70.40
2023-02-27T08:58:57.830Z,70.20
2023-02-27T09:01:28.465Z,70.20
2023-02-27T09:03:56.850Z,70.30
2023-02-27T09:06:26.363Z,70.40
2023-02-27T09:08:54.613Z,70.00
2023-02-27T09:11:24.658Z,69.80
2023-02-27T09:13:52.855Z,69.30
2023-02-27T09:16:21.533Z,69.30
2023-02-27T09:18:50.248Z,69.10
2023-02-27T09:21:18.836Z,69.30
2023-02-27T09:23:46.953Z,69.50
2023-02-27T09:26:16.179Z,69.10
2023-02-27T09:28:45.768Z,68.50
2023-02-27T09:31:13.872Z,68.30
2023-02-27T09:33:42.103Z,68.30
2023-02-27T09:36:10.327Z,67.00
2023-02-27T09:38:41.344Z,66.60
2023-02-27T09:41:30.384Z,66.30
2023-02-27T09:44:01.593Z,66.20
2023-02-27T09:46:30.535Z,65.90
2023-02-27T09:49:01.629Z,65.80
2023-02-27T09:51:30.482Z,65.60
2023-02-27T09:54:01.179Z,65.40
2023-02-27T09:56:32.424Z,64.70
2023-02-27T09:59:11.654Z,64.00
2023-02-27T10:01:47.188Z,63.30
2023-02-27T10:04:31.361Z,63.60
2023-02-27T10:07:08.479Z,63.20
2023-02-27T10:09:44.294Z,62.60
2023-02-27T10:12:22.538Z,62.00
2023-02-27T10:14:57.808Z,62.50
2023-02-27T10:17:31.504Z,62.20
2023-02-27T10:20:04.652Z,62.10
2023-02-27T10:22:37.743Z,61.70
2023-02-27T10:25:21.441Z,61.90
2023-02-27T10:28:01.723Z,61.60
2023-02-27T10:30:34.684Z,61.80
2023-02-27T10:33:12.443Z,61.50
2023-02-27T10:35:44.081Z,61.50
2023-02-27T10:38:16.651Z,61.70
2023-02-27T10:40:46.441Z,62.40
2023-02-27T10:43:19.153Z,62.00
2023-02-27T10:45:48.704Z,62.10
2023-02-27T10:48:17.172Z,62.00
2023-02-27T10:50:46.949Z,62.40
2023-02-27T10:53:23.366Z,62.80
2023-02-27T10:56:01.426Z,62.60
2023-02-27T10:58:34.789Z,62.20
2023-02-27T11:01:07.128Z,62.60
2023-02-27T11:03:38.670Z,62.30
2023-02-27T11:06:10.665Z,62.00
2023-02-27T11:08:38.770Z,61.90
2023-02-27T11:11:09.450Z,61.30
2023-02-27T11:13:39.804Z,62.20
2023-02-27T11:16:17.498Z,61.80
2023-02-27T11:18:47.347Z,61.60
2023-02-27T11:21:27.418Z,61.90
2023-02-27T11:24:01.964Z,61.80
2023-02-27T11:26:35.057Z,61.90
2023-02-27T11:29:21.210Z,62.20
2023-02-27T11:31:54.520Z,61.80
2023-02-27T11:34:27.439Z,60.90
2023-02-27T11:37:00.488Z,61.10
2023-02-27T11:39:34.397Z,61.10
2023-02-27T11:42:15.878Z,61.10
2023-02-27T11:44:57.319Z,60.60
2023-02-27T11:47:32.530Z,60.60
2023-02-27T11:50:28.636Z,60.30
2023-02-27T11:53:07.411Z,60.00
2023-02-27T11:55:37.683Z,59.70
2023-02-27T11:58:11.930Z,60.10
2023-02-27T12:00:46.423Z,59.80
2023-02-27T12:03:23.445Z,59.30
2023-02-27T12:05:53.685Z,59.50
2023-02-27T12:08:30.426Z,59.40
2023-02-27T12:11:13.224Z,59.20
2023-02-27T12:13:44.542Z,59.10
2023-02-27T12:16:20.711Z,58.70
2023-02-27T12:18:54.693Z,58.60
2023-02-27T12:21:25.979Z,58.40
2023-02-27T12:23:58.169Z,58.40
2023-02-27T12:26:30.810Z,58.90
2023-02-27T12:29:04.598Z,58.00
2023-02-27T12:31:46.822Z,58.30
2023-02-27T12:34:28.455Z,57.80
2023-02-27T12:37:02.563Z,57.70
2023-02-27T12:39:31.149Z,57.80
2023-02-27T12:42:34.672Z,57.50
2023-02-27T12:45:23.712Z,57.70
2023-02-27T12:48:01.572Z,58.20
2023-02-27T12:50:43.176Z,57.30
2023-02-27T12:53:43.554Z,57.20
2023-02-27T12:56:16.303Z,57.10
2023-02-27T12:58:56.226Z,57.30
2023-02-27T13:01:33.545Z,57.10
2023-02-27T13:04:06.980Z,57.10
2023-02-27T13:06:45.373Z,57.40
2023-02-27T13:09:23.476Z,57.10
2023-02-27T13:12:02.162Z,57.20
2023-02-27T13:14:45.701Z,57.40
2023-02-27T13:17:20.755Z,57.20
2023-02-27T13:19:53.676Z,57.20
2023-02-27T13:22:33.879Z,57.20
2023-02-27T13:25:06.278Z,57.30
2023-02-27T13:27:36.966Z,57.40
2023-02-27T13:30:15.199Z,57.30
2023-02-27T13:32:48.264Z,57.20
2023-02-27T13:35:23.591Z,57.70
2023-02-27T13:37:56.022Z,57.20
2023-02-27T13:40:36.769Z,57.40
2023-02-27T13:43:30.368Z,56.90
2023-02-27T13:46:00.213Z,57.00
2023-02-27T13:48:49.299Z,56.80
2023-02-27T13:51:54.445Z,56.40
2023-02-27T13:54:27.732Z,56.10
2023-02-27T13:57:22.582Z,56.10
2023-02-27T13:59:57.788Z,55.70
2023-02-27T14:02:57.789Z,55.50
2023-02-27T14:05:33.297Z,55.50
2023-02-27T14:08:08.034Z,55.60
2023-02-27T14:10:38.593Z,55.90
2023-02-27T14:13:28.109Z,56.00
2023-02-27T14:16:00.438Z,55.50
2023-02-27T14:18:51.979Z,55.70
2023-02-27T14:21:53.004Z,55.80
2023-02-27T14:24:24.642Z,55.80
2023-02-27T14:26:55.329Z,55.70
2023-02-27T14:29:31.002Z,55.80
2023-02-27T14:32:03.998Z,55.50
2023-02-27T14:34:32.506Z,55.70
2023-02-27T14:37:02.926Z,55.40
2023-02-27T14:39:34.493Z,55.00
2023-02-27T14:42:30.459Z,55.20
2023-02-27T14:44:58.884Z,55.30
2023-02-27T14:47:32.926Z,55.30
2023-02-27T14:50:02.125Z,55.30
2023-02-27T14:52:31.844Z,54.90
2023-02-27T14:55:15.277Z,55.10
2023-02-27T14:57:55.272Z,55.20
2023-02-27T15:00:39.023Z,55.10
2023-02-27T15:03:20.967Z,55.10
2023-02-27T15:05:50.191Z,55.10
2023-02-27T15:08:21.129Z,55.00
2023-02-27T15:10:49.348Z,55.20
2023-02-27T15:13:28.337Z,55.70
2023-02-27T15:16:23.575Z,55.70
2023-02-27T15:18:55.316Z,55.90
2023-02-27T15:21:26.059Z,55.90
2023-02-27T15:23:58.735Z,56.20
2023-02-27T15:26:30.134Z,56.20
2023-02-27T15:28:59.927Z,56.20
2023-02-27T15:31:32.148Z,56.30
2023-02-27T15:34:03.878Z,56.20
2023-02-27T15:36:34.215Z,56.10
2023-02-27T15:39:09.526Z,56.20
2023-02-27T15:41:38.109Z,56.10
2023-02-27T15:44:06.664Z,56.30
2023-02-27T15:46:34.775Z,56.30
2023-02-27T15:49:04.299Z,56.40
2023-02-27T15:51:32.300Z,56.50
2023-02-27T15:54:01.583Z,56.50
2023-02-27T15:56:33.677Z,56.50
2023-02-27T15:59:02.349Z,56.50
2023-02-27T16:01:34.861Z,56.50
2023-02-27T16:04:07.986Z,56.60
2023-02-27T16:06:39.443Z,56.60
2023-02-27T16:09:20.321Z,56.60
2023-02-27T16:11:48.787Z,56.40
2023-02-27T16:14:46.927Z,56.30
2023-02-27T16:17:26.863Z,56.50
2023-02-27T16:19:57.677Z,56.60
2023-02-27T16:22:26.184Z,56.70
2023-02-27T16:24:56.139Z,56.70
2023-02-27T16:27:25.999Z,56.70
2023-02-27T16:29:56.151Z,56.70
2023-02-27T16:32:28.189Z,56.90
2023-02-27T16:35:07.969Z,57.00
2023-02-27T16:37:38.464Z,57.20
2023-02-27T16:40:14.930Z,57.00
2023-02-27T16:42:43.064Z,57.30
2023-02-27T16:45:16.841Z,57.40
2023-02-27T16:47:44.868Z,57.60
2023-02-27T16:50:20.321Z,57.70
2023-02-27T16:52:48.720Z,57.70
2023-02-27T16:55:17.494Z,57.90
2023-02-27T16:57:45.769Z,57.90
2023-02-27T17:00:16.899Z,57.90
2023-02-27T17:02:46.663Z,58.10
2023-02-27T17:05:16.515Z,58.00
2023-02-27T17:07:45.767Z,58.10
2023-02-27T17:10:17.033Z,58.30
2023-02-27T17:12:46.946Z,58.20
2023-02-27T17:15:15.252Z,58.30
2023-02-27T17:17:43.656Z,58.40
2023-02-27T17:20:13.695Z,58.40
2023-02-27T17:22:45.325Z,58.40
2023-02-27T17:25:14.257Z,58.40
2023-02-27T17:27:44.059Z,58.50
2023-02-27T17:30:13.829Z,58.60
2023-02-27T17:32:41.863Z,58.70
2023-02-27T17:35:10.492Z,58.60
2023-02-27T17:37:39.010Z,58.70
2023-02-27T17:40:09.651Z,58.80
2023-02-27T17:42:39.154Z,58.90
2023-02-27T17:45:09.131Z,59.00
2023-02-27T17:47:37.498Z,59.10
2023-02-27T17:50:06.606Z,59.20
2023-02-27T17:52:36.854Z,59.30
2023-02-27T17:55:05.246Z,59.30
2023-02-27T17:57:36.598Z,59.20
2023-02-27T18:00:05.612Z,59.30
2023-02-27T18:02:33.608Z,59.60
2023-02-27T18:05:01.927Z,59.70
2023-02-27T18:07:29.892Z,59.80
2023-02-27T18:09:57.864Z,59.90
2023-02-27T18:12:25.962Z,60.00
2023-02-27T18:14:56.294Z,60.00
2023-02-27T18:17:24.311Z,60.00
2023-02-27T18:19:52.266Z,60.80
2023-02-27T18:22:21.760Z,60.10
2023-02-27T18:24:50.079Z,60.30
2023-02-27T18:27:18.080Z,60.10
2023-02-27T18:29:46.051Z,60.20
2023-02-27T18:32:15.564Z,60.40
2023-02-27T18:34:44.439Z,60.40
2023-02-27T18:37:12.495Z,61.40
2023-02-27T18:39:42.207Z,60.90
2023-02-27T18:42:10.283Z,60.80
2023-02-27T18:44:40.936Z,60.80
2023-02-27T18:47:09.630Z,60.90
2023-02-27T18:49:38.986Z,60.90
2023-02-27T18:52:07.376Z,61.10
2023-02-27T18:54:36.234Z,62.20
2023-02-27T18:57:04.766Z,61.30
2023-02-27T18:59:32.716Z,61.60
2023-02-27T19:02:01.389Z,61.80
2023-02-27T19:04:29.368Z,61.90
2023-02-27T19:06:58.674Z,62.00
2023-02-27T19:09:32.725Z,62.20
2023-02-27T19:12:01.159Z,62.20
2023-02-27T19:14:29.340Z,62.40
2023-02-27T19:17:00.377Z,62.50
2023-02-27T19:19:28.940Z,62.70
2023-02-27T19:21:58.530Z,62.70
2023-02-27T19:24:26.972Z,62.90
2023-02-27T19:26:54.928Z,62.90
2023-02-27T19:29:22.982Z,62.70
2023-02-27T19:31:51.083Z,62.80
2023-02-27T19:34:19.123Z,62.90
2023-02-27T19:36:47.103Z,62.90
2023-02-27T19:39:16.458Z,63.00
2023-02-27T19:41:44.554Z,63.10
2023-02-27T19:44:12.584Z,63.40
2023-02-27T19:46:41.385Z,63.60
2023-02-27T19:49:09.773Z,63.30
2023-02-27T19:51:38.985Z,63.40
2023-02-27T19:54:07.428Z,63.40
2023-02-27T19:56:37.067Z,63.40
2023-02-27T19:59:06.192Z,63.40
2023-02-27T20:01:36.374Z,63.60
2023-02-27T20:04:05.053Z,63.40
2023-02-27T20:06:41.970Z,63.30
2023-02-27T20:09:13.513Z,63.30
2023-02-27T20:11:43.865Z,63.20
2023-02-27T20:14:17.005Z,63.20
2023-02-27T20:16:46.190Z,63.50
2023-02-27T20:19:16.636Z,63.70
2023-02-27T20:21:46.473Z,63.80
2023-02-27T20:24:15.407Z,64.00
2023-02-27T20:26:47.716Z,64.10
2023-02-27T20:29:18.910Z,63.90
2023-02-27T20:31:51.514Z,64.00
2023-02-27T20:34:26.063Z,63.90
2023-02-27T20:36:55.945Z,64.10
2023-02-27T20:39:24.983Z,64.20
2023-02-27T20:41:55.386Z,64.60
2023-02-27T20:44:24.025Z,64.60
2023-02-27T20:46:52.962Z,64.70
2023-02-27T20:49:23.007Z,64.90
2023-02-27T20:51:51.786Z,64.90
2023-02-27T20:54:21.294Z,64.90
2023-02-27T20:56:52.403Z,64.90
2023-02-27T20:59:24.910Z,65.00
2023-02-27T21:01:55.259Z,65.20
2023-02-27T21:04:26.391Z,65.40
2023-02-27T21:06:56.286Z,65.70
2023-02-27T21:09:25.048Z,65.80
2023-02-27T21:11:53.712Z,65.80
2023-02-27T21:14:24.101Z,65.70
2023-02-27T21:16:52.503Z,65.40
2023-02-27T21:19:21.839Z,65.20
2023-02-27T21:21:50.459Z,65.60
2023-02-27T21:24:19.096Z,65.40
2023-02-27T21:26:47.188Z,65.40
2023-02-27T21:29:18.166Z,65.60
2023-02-27T21:31:49.656Z,65.70
2023-02-27T21:34:20.793Z,65.90
2023-02-27T21:36:49.293Z,65.70
2023-02-27T21:39:19.145Z,65.40
2023-02-27T21:41:47.572Z,65.40
2023-02-27T21:44:18.340Z,65.50
2023-02-27T21:46:48.403Z,65.70
2023-02-27T21:49:18.204Z,65.90
2023-02-27T21:51:46.729Z,66.10
2023-02-27T21:54:16.309Z,66.30
2023-02-27T21:56:46.065Z,66.40
2023-02-27T21:59:14.757Z,67.20
2023-02-27T22:01:47.182Z,66.40
2023-02-27T22:04:17.359Z,66.40
2023-02-27T22:06:45.486Z,66.40
2023-02-27T22:09:13.649Z,66.40
2023-02-27T22:11:42.028Z,66.40
2023-02-27T22:14:11.857Z,66.20
2023-02-27T22:16:40.799Z,66.10
2023-02-27T22:19:09.514Z,66.00
2023-02-27T22:21:39.643Z,66.20
2023-02-27T22:24:08.742Z,66.20
2023-02-27T22:26:37.001Z,66.60
2023-02-27T22:29:06.274Z,66.30
2023-02-27T22:31:35.903Z,66.50
2023-02-27T22:34:11.364Z,66.40
2023-02-27T22:36:41.678Z,66.60
2023-02-27T22:39:09.694Z,66.40
2023-02-27T22:41:39.534Z,66.60
2023-02-27T22:44:09.505Z,66.20
2023-02-27T22:46:39.120Z,66.10
2023-02-27T22:49:11.114Z,65.80
2023-02-27T22:51:40.975Z,66.60
2023-02-27T22:54:10.203Z,66.40
2023-02-27T22:56:38.233Z,66.60
2023-02-27T22:59:06.966Z,66.90
2023-02-27T23:01:36.400Z,67.00
2023-02-27T23:04:07.002Z,67.20
2023-02-27T23:06:37.323Z,66.50
2023-02-27T23:09:08.204Z,66.60
2023-02-27T23:11:36.449Z,66.80
2023-02-27T23:14:04.433Z,65.70
2023-02-27T23:16:32.548Z,66.00
2023-02-27T23:19:01.237Z,66.50
2023-02-27T23:21:34.325Z,66.40
2023-02-27T23:24:06.551Z,66.10
2023-02-27T23:26:36.385Z,67.10
2023-02-27T23:29:04.677Z,66.40
2023-02-27T23:31:34.915Z,66.90
2023-02-27T23:34:03.830Z,67.20
2023-02-27T23:36:31.792Z,67.60
2023-02-27T23:38:59.765Z,67.60
2023-02-27T23:41:29.437Z,67.70
2023-02-27T23:43:57.737Z,67.80
2023-02-27T23:46:30.745Z,67.80
2023-02-27T23:48:59.253Z,68.00
2023-02-27T23:51:30.119Z,68.20
2023-02-27T23:53:58.908Z,67.90
2023-02-27T23:56:30.091Z,68.10
2023-02-27T23:58:59.553Z,68.00
